Date,TemperatureHighF,TemperatureAvgF,TemperatureLowF,DewpointHighF,DewpointAvgF,DewpointLowF,HumidityHigh,HumidityAvg,HumidityLow,PressureMaxIn,PressureMinIn,WindSpeedMaxMPH,WindSpeedAvgMPH,GustSpeedMaxMPH,PrecipitationSumIn
2013-1-1,27.4,21.3,11.5,20.1,13.1,6.5,83,70,57,30.17,30.01,7,0,7,0.00
2013-1-2,26.5,21.4,14.6,19.1,15.4,10.1,83,78,70,30.21,30.09,9,0,11,0.00
2013-1-3,29.1,22.4,13.9,24.8,16.6,6.4,84,78,70,30.17,30.07,9,0,10,0.00
2013-1-4,30.1,26.6,22.9,23.9,20.0,17.3,83,76,65,30.20,30.03,12,1,12,0.00
2013-1-5,32.4,25.4,13.9,29.2,20.9,10.5,88,83,73,30.30,30.02,6,1,7,0.00
2013-1-6,35.6,33.3,31.6,31.3,29.0,25.1,88,84,76,30.27,29.90,14,1,14,0.00
2013-1-7,34.4,31.0,28.8,25.6,24.1,21.9,80,75,69,30.38,30.14,13,3,13,0.00
2013-1-8,36.8,29.5,22.7,28.6,24.0,19.0,86,80,71,30.25,30.16,6,1,11,0.00
2013-1-9,45.9,38.2,28.5,33.8,28.5,24.6,86,69,47,30.44,30.02,22,2,22,0.07
2013-1-10,42.1,33.6,21.6,31.8,26.8,18.1,88,77,58,30.58,30.15,10,0,10,0.08
2013-1-11,56.1,44.5,35.1,51.6,41.1,31.6,97,88,75,30.16,29.74,12,2,13,0.58
2013-1-12,59.3,50.7,45.1,51.1,46.1,42.3,91,85,70,29.92,29.80,7,1,7,0.02
2013-1-13,48.4,37.7,29.7,45.6,35.1,26.1,91,90,89,30.05,29.70,11,0,12,0.69
2013-1-14,29.6,23.6,17.1,26.8,18.0,13.3,89,79,71,30.45,30.05,13,1,17,0.00
2013-1-15,30.0,21.8,13.2,21.8,16.2,9.6,87,79,66,30.46,30.15,3,0,3,0.01
2013-1-16,37.4,28.6,19.9,27.3,19.8,16.4,92,71,44,30.16,29.81,10,1,10,0.00
2013-1-17,36.2,30.1,19.6,29.8,20.8,8.2,85,68,55,30.32,29.95,15,1,15,0.00
2013-1-18,34.5,25.9,15.8,23.9,15.7,7.4,78,65,56,30.45,29.97,17,3,17,0.00
2013-1-19,47.1,41.6,34.4,35.2,30.3,23.9,71,64,57,29.98,29.56,16,4,16,0.00
2013-1-20,43.8,22.4,16.6,34.6,10.9,4.8,75,61,46,30.21,29.55,30,3,30,0.00
2013-1-21,17.6,13.3,4.4,12.7,6.2,-2.1,81,73,62,30.17,29.97,14,0,14,0.00
2013-1-22,9.9,4.6,-2.9,2.8,-3.4,-9.9,78,69,56,30.32,30.15,14,0,14,0.00
2013-1-23,17.6,11.1,3.3,9.1,4.4,-2.0,81,74,64,30.32,30.10,6,0,6,0.00
2013-1-24,19.7,12.8,7.6,9.5,3.9,-0.7,82,68,45,30.61,30.14,7,0,9,0.01
2013-1-25,20.4,17.5,12.6,16.2,11.5,4.6,87,77,65,30.52,30.02,6,0,6,0.00
2013-1-26,26.9,21.9,16.9,18.9,15.6,12.2,92,77,60,30.47,30.06,7,0,7,0.00
2013-1-27,30.2,21.1,10.9,26.7,15.4,7.0,88,79,64,30.49,30.09,11,1,12,0.00
2013-1-28,45.7,37.6,30.2,43.4,35.2,26.8,92,91,87,30.14,29.84,7,1,10,0.50
2013-1-29,39.8,37.2,34.9,38.0,35.2,32.8,93,92,92,30.00,29.80,7,1,9,0.23
2013-1-30,60.2,49.0,31.4,56.6,46.0,26.8,93,89,83,29.54,29.09,9,3,23,0.34
2013-1-31,29.9,21.8,16.6,23.3,15.0,9.8,85,75,63,29.90,29.29,5,2,21,0.00